»·PEaware :: N1399 KSLC-KDTA

N1399 :: KSLC-KDTA

FLIGHT INFORMATION

Flight Status: Arrived
Operator: Privately registered:
United States
More flights under this callsign
Pilot: David C. (16084)
Aircraft: BEECH AIRCRAFT SUPER KING AIR 350
(B350)
More flights by this aircraft type
Origin: KSLC Salt Lake City Intl
United States
Destination: KDTA Delta Mun
United States
More flights between these airports :: More routes between these airports
Route: +FFU9 FFU DTA
File this flight plan on PilotEdge
Remarks:
Altitude:
(Current/Filed)
16,000ft
Speed:
(Current/Filed)
325kts
Departed: 17-Apr-19 05:27 PM
Arrived: 17-Apr-19 05:59 PM
Distance/Time
Traveled:
88nm/0:31
Distance/Time
To Go:
Arrived

Flight Plot

Page will automatically refresh every two minutes.

Flight plan parsing failed; only flown route is shown


Map Options




Map Legend


Flown Route
Filed Route
Departure Airport
Arrival Airport
Navaid (VOR, NDB)
Fix

Horizontal Profiles

Position Reports

Time Latitude Longitude Heading Altitude Ground
Speed
17-Apr-19 16:28 40.778596 -111.958811 180 4232ft 0kts
17-Apr-19 16:29 40.778596 -111.958811 180 4232ft 0kts
17-Apr-19 16:30 40.778596 -111.958811 180 4232ft 0kts
17-Apr-19 16:31 40.778596 -111.958811 180 4232ft 0kts
17-Apr-19 16:32 40.778596 -111.958811 180 4232ft 0kts
17-Apr-19 16:33 40.778596 -111.958811 180 4232ft 0kts
17-Apr-19 16:34 40.778596 -111.958811 180 4232ft 0kts
17-Apr-19 16:35 40.778596 -111.958811 180 4232ft 0kts
17-Apr-19 16:36 40.778596 -111.958811 180 4232ft 0kts
17-Apr-19 16:37 40.778596 -111.958811 180 4232ft 0kts
17-Apr-19 16:38 40.778596 -111.958811 180 4232ft 0kts
17-Apr-19 16:39 40.778596 -111.958811 180 4232ft 0kts
17-Apr-19 16:40 40.778596 -111.958811 180 4232ft 0kts
17-Apr-19 16:41 40.778596 -111.958811 180 4232ft 0kts
17-Apr-19 16:42 40.778596 -111.958811 180 4232ft 0kts
17-Apr-19 16:43 40.778596 -111.958811 180 4232ft 0kts
17-Apr-19 16:44 40.778596 -111.958811 180 4232ft 0kts
17-Apr-19 16:45 40.778596 -111.958811 180 4232ft 0kts
17-Apr-19 16:46 40.778596 -111.958811 180 4232ft 0kts
17-Apr-19 16:47 40.778596 -111.958811 180 4232ft 0kts
17-Apr-19 16:48 40.778596 -111.958811 180 4232ft 0kts
17-Apr-19 16:49 40.778596 -111.958811 181 4232ft 0kts
17-Apr-19 16:50 40.778596 -111.958811 180 4232ft 0kts
17-Apr-19 16:51 40.778596 -111.958811 180 4232ft 0kts
17-Apr-19 16:52 40.778596 -111.958811 180 4232ft 0kts
17-Apr-19 16:53 40.778596 -111.958811 180 4232ft 0kts
17-Apr-19 16:54 40.778596 -111.958811 180 4232ft 0kts
17-Apr-19 16:55 40.778596 -111.958811 180 4232ft 0kts
17-Apr-19 16:56 40.778596 -111.958811 180 4232ft 0kts
17-Apr-19 16:57 40.778596 -111.958811 180 4232ft 0kts
17-Apr-19 16:58 40.778596 -111.958811 180 4232ft 0kts
17-Apr-19 16:59 40.778596 -111.958811 180 4232ft 0kts
17-Apr-19 17:00 40.778596 -111.958811 180 4232ft 0kts
17-Apr-19 17:01 40.778596 -111.958811 180 4232ft 0kts
17-Apr-19 17:02 40.778596 -111.958811 180 4232ft 0kts
17-Apr-19 17:03 40.778596 -111.958811 180 4232ft 0kts
17-Apr-19 17:04 40.778596 -111.958811 180 4232ft 0kts
17-Apr-19 17:05 40.778596 -111.958811 180 4232ft 0kts
17-Apr-19 17:06 40.778596 -111.958811 180 4232ft 0kts
17-Apr-19 17:07 40.778596 -111.958811 180 4232ft 0kts
17-Apr-19 17:08 40.778596 -111.958811 180 4232ft 0kts
17-Apr-19 17:09 40.778596 -111.958811 180 4232ft 0kts
17-Apr-19 17:10 40.778596 -111.958811 180 4232ft 0kts
17-Apr-19 17:11 40.778596 -111.958811 180 4232ft 0kts
17-Apr-19 17:12 40.778596 -111.958811 180 4232ft 0kts
17-Apr-19 17:13 40.778596 -111.958811 180 4232ft 0kts
17-Apr-19 17:14 40.778596 -111.958811 180 4232ft 0kts
17-Apr-19 17:15 40.778596 -111.958811 180 4232ft 0kts
17-Apr-19 17:16 40.778596 -111.958811 180 4232ft 0kts
17-Apr-19 17:17 40.778596 -111.958811 180 4232ft 0kts
17-Apr-19 17:18 40.778476 -111.958854 211 4232ft 1kts
17-Apr-19 17:19 40.778329 -111.959784 277 4232ft 2kts
17-Apr-19 17:20 40.781167 -111.960029 1 4232ft 15kts
17-Apr-19 17:21 40.785690 -111.960013 1 4232ft 16kts
17-Apr-19 17:22 40.790468 -111.960046 2 4232ft 17kts
17-Apr-19 17:23 40.795313 -111.960058 359 4232ft 17kts
17-Apr-19 17:24 40.798815 -111.960405 289 4232ft 0kts
17-Apr-19 17:25 40.798816 -111.960409 289 4232ft 0kts
17-Apr-19 17:26 40.796195 -111.962074 180 4232ft 55kts
17-Apr-19 17:27 40.757605 -111.962741 172 5536ft 170kts
17-Apr-19 17:28 40.706424 -111.952370 171 7340ft 201kts
17-Apr-19 17:29 40.650427 -111.953790 182 9293ft 206kts
17-Apr-19 17:30 40.594650 -111.952166 182 11155ft 209kts
17-Apr-19 17:31 40.536757 -111.951402 193 13036ft 208kts
17-Apr-19 17:32 40.482705 -111.975465 207 14770ft 207kts
17-Apr-19 17:33 40.427076 -112.000977 207 16033ft 234kts
17-Apr-19 17:34 40.358134 -112.032406 205 16026ft 281kts
17-Apr-19 17:35 40.281968 -112.067120 205 16016ft 296kts
17-Apr-19 17:36 40.203127 -112.102953 205 16017ft 300kts
17-Apr-19 17:37 40.123820 -112.138871 205 16016ft 302kts
17-Apr-19 17:38 40.042972 -112.170588 198 16000ft 306kts
17-Apr-19 17:39 39.961719 -112.200999 202 16028ft 303kts
17-Apr-19 17:40 39.880473 -112.233065 202 15996ft 304kts
17-Apr-19 17:41 39.799989 -112.264592 202 15990ft 303kts
17-Apr-19 17:42 39.719135 -112.296274 202 15934ft 304kts
17-Apr-19 17:43 39.638006 -112.327998 202 15904ft 304kts
17-Apr-19 17:44 39.557121 -112.359553 202 15903ft 303kts
17-Apr-19 17:45 39.476357 -112.390993 202 15120ft 304kts
17-Apr-19 17:46 39.395962 -112.422205 202 13616ft 299kts
17-Apr-19 17:47 39.324731 -112.449785 202 11832ft 264kts
17-Apr-19 17:48 39.260004 -112.474766 203 10863ft 212kts
17-Apr-19 17:49 39.203211 -112.496221 189 9323ft 217kts
17-Apr-19 17:50 39.157564 -112.514648 270 9033ft 180kts
17-Apr-19 17:51 39.205426 -112.532426 9 8012ft 227kts
17-Apr-19 17:52 39.264028 -112.512770 12 7277ft 199kts
17-Apr-19 17:53 39.319162 -112.499726 8 6733ft 186kts
17-Apr-19 17:54 39.367013 -112.480129 22 6365ft 172kts
17-Apr-19 17:55 39.407847 -112.448073 18 6655ft 171kts
17-Apr-19 17:56 39.430637 -112.478122 268 6542ft 133kts
17-Apr-19 17:57 39.404590 -112.501906 180 5193ft 127kts
17-Apr-19 17:58 39.380480 -112.502225 181 4763ft 37kts
17-Apr-19 17:59 39.374858 -112.502369 234 4763ft 5kts
17-Apr-19 18:00 39.377456 -112.505834 315 4763ft 18kts
17-Apr-19 18:01 39.381810 -112.511357 313 4763ft 24kts
17-Apr-19 18:02 39.384994 -112.512125 320 4763ft 13kts
17-Apr-19 18:03 39.385608 -112.512370 306 4763ft 0kts
17-Apr-19 18:04 39.385608 -112.512370 306 4763ft 0kts

Navigation Log

Ident Type
Flight plan parsing failed, navigation log unavailable